sensor_id;sensor_type;location;lat;lon;timestamp;temperature;humidity
63407;SHT31;49543;45.892;10.838;2023-03-23T08:48:22;17.35;67.24
63407;SHT31;49543;45.892;10.838;2023-03-23T08:50:48;17.40;67.23
63407;SHT31;49543;45.892;10.838;2023-03-23T08:53:14;17.46;66.98
63407;SHT31;49543;45.892;10.838;2023-03-23T10:26:32;18.76;63.57
63407;SHT31;49543;45.892;10.838;2023-03-23T10:29:11;18.48;64.90
63407;SHT31;49543;45.892;10.838;2023-03-23T10:31:45;18.32;65.53
63407;SHT31;49543;45.892;10.838;2023-03-23T10:37:03;17.60;67.13
63407;SHT31;49543;45.892;10.838;2023-03-23T10:39:32;17.36;68.35
63407;SHT31;49543;45.892;10.838;2023-03-23T10:42:02;17.23;69.60
63407;SHT31;49543;45.892;10.838;2023-03-23T10:44:33;17.35;69.36
63407;SHT31;49543;45.892;10.838;2023-03-23T10:47:03;17.60;69.06
63407;SHT31;49543;45.892;10.838;2023-03-23T10:49:40;18.48;67.49
63407;SHT31;49543;45.892;10.838;2023-03-23T10:54:39;20.00;64.14
63407;SHT31;49543;45.892;10.838;2023-03-23T10:59:46;20.87;62.51
63407;SHT31;49543;45.892;10.838;2023-03-23T11:02:14;21.48;61.50
63407;SHT31;49543;45.892;10.838;2023-03-23T11:04:44;22.25;60.01
63407;SHT31;49543;45.892;10.838;2023-03-23T11:07:15;22.82;56.77
63407;SHT31;49543;45.892;10.838;2023-03-23T11:09:51;23.31;55.95
63407;SHT31;49543;45.892;10.838;2023-03-23T11:12:17;23.05;56.68
63407;SHT31;49543;45.892;10.838;2023-03-23T11:14:43;23.03;56.40
63407;SHT31;49543;45.892;10.838;2023-03-23T11:17:25;23.09;56.34
63407;SHT31;49543;45.892;10.838;2023-03-23T11:19:51;23.12;55.68
63407;SHT31;49543;45.892;10.838;2023-03-23T11:24:45;23.97;53.22
63407;SHT31;49543;45.892;10.838;2023-03-23T11:27:11;24.49;52.37
63407;SHT31;49543;45.892;10.838;2023-03-23T11:29:44;25.01;52.76
63407;SHT31;49543;45.892;10.838;2023-03-23T11:32:10;25.40;50.70
63407;SHT31;49543;45.892;10.838;2023-03-23T11:34:41;25.33;49.43
63407;SHT31;49543;45.892;10.838;2023-03-23T11:39:54;25.46;48.80
63407;SHT31;49543;45.892;10.838;2023-03-23T11:42:34;25.54;48.86
63407;SHT31;49543;45.892;10.838;2023-03-23T11:48:01;26.11;47.47
63407;SHT31;49543;45.892;10.838;2023-03-23T11:55:57;26.75;46.64
63407;SHT31;49543;45.892;10.838;2023-03-23T11:58:25;27.00;46.24
63407;SHT31;49543;45.892;10.838;2023-03-23T12:01:04;26.75;46.37
63407;SHT31;49543;45.892;10.838;2023-03-23T12:03:38;26.76;46.68
63407;SHT31;49543;45.892;10.838;2023-03-23T12:06:09;26.83;46.71
63407;SHT31;49543;45.892;10.838;2023-03-23T12:16:18;27.35;46.01
63407;SHT31;49543;45.892;10.838;2023-03-23T12:21:33;27.35;45.74
63407;SHT31;49543;45.892;10.838;2023-03-23T12:24:08;27.72;45.52
63407;SHT31;49543;45.892;10.838;2023-03-23T12:26:39;28.22;44.89
63407;SHT31;49543;45.892;10.838;2023-03-23T12:32:02;28.41;44.39
63407;SHT31;49543;45.892;10.838;2023-03-23T12:37:41;27.49;44.81
63407;SHT31;49543;45.892;10.838;2023-03-23T12:44:46;25.60;47.62
63407;SHT31;49543;45.892;10.838;2023-03-23T19:49:02;16.52;64.53
63407;SHT31;49543;45.892;10.838;2023-03-23T19:51:28;16.49;64.94
63407;SHT31;49543;45.892;10.838;2023-03-23T19:53:54;16.49;65.06
63407;SHT31;49543;45.892;10.838;2023-03-23T19:56:19;16.47;65.36
63407;SHT31;49543;45.892;10.838;2023-03-23T19:58:46;16.46;65.66
63407;SHT31;49543;45.892;10.838;2023-03-23T20:01:11;16.42;65.79
63407;SHT31;49543;45.892;10.838;2023-03-23T20:03:37;16.37;66.11
63407;SHT31;49543;45.892;10.838;2023-03-23T20:06:03;16.39;65.76
63407;SHT31;49543;45.892;10.838;2023-03-23T20:08:29;16.36;65.87
63407;SHT31;49543;45.892;10.838;2023-03-23T20:11:04;16.33;65.93
63407;SHT31;49543;45.892;10.838;2023-03-23T20:13:30;16.29;66.14
63407;SHT31;49543;45.892;10.838;2023-03-23T20:15:55;16.28;65.88
63407;SHT31;49543;45.892;10.838;2023-03-23T20:18:21;16.23;65.89
63407;SHT31;49543;45.892;10.838;2023-03-23T20:20:46;16.28;65.70
63407;SHT31;49543;45.892;10.838;2023-03-23T20:23:11;16.22;66.16
63407;SHT31;49543;45.892;10.838;2023-03-23T20:25:37;16.23;66.31
63407;SHT31;49543;45.892;10.838;2023-03-23T20:28:02;16.23;66.37
63407;SHT31;49543;45.892;10.838;2023-03-23T20:30:28;16.16;66.41
63407;SHT31;49543;45.892;10.838;2023-03-23T20:32:53;16.20;66.16
63407;SHT31;49543;45.892;10.838;2023-03-23T20:35:22;16.22;66.06
63407;SHT31;49543;45.892;10.838;2023-03-23T20:37:47;16.15;66.29
63407;SHT31;49543;45.892;10.838;2023-03-23T20:40:16;16.10;66.25
63407;SHT31;49543;45.892;10.838;2023-03-23T20:42:42;16.10;66.49
63407;SHT31;49543;45.892;10.838;2023-03-23T20:45:08;16.06;67.00
63407;SHT31;49543;45.892;10.838;2023-03-23T20:47:35;16.05;67.38
63407;SHT31;49543;45.892;10.838;2023-03-23T20:50:00;16.01;66.99
63407;SHT31;49543;45.892;10.838;2023-03-23T20:52:26;16.01;66.94
63407;SHT31;49543;45.892;10.838;2023-03-23T20:54:51;15.99;67.17
63407;SHT31;49543;45.892;10.838;2023-03-23T20:57:17;15.92;67.48
63407;SHT31;49543;45.892;10.838;2023-03-23T20:59:43;15.90;66.88
63407;SHT31;49543;45.892;10.838;2023-03-23T21:02:12;15.82;67.53
63407;SHT31;49543;45.892;10.838;2023-03-23T21:04:39;15.74;67.64
63407;SHT31;49543;45.892;10.838;2023-03-23T21:07:06;15.72;67.84
63407;SHT31;49543;45.892;10.838;2023-03-23T21:09:31;15.71;67.75
63407;SHT31;49543;45.892;10.838;2023-03-23T21:11:57;15.68;68.08
63407;SHT31;49543;45.892;10.838;2023-03-23T21:14:23;15.68;67.84
63407;SHT31;49543;45.892;10.838;2023-03-23T21:16:48;15.65;67.85
63407;SHT31;49543;45.892;10.838;2023-03-23T21:19:14;15.65;67.59
63407;SHT31;49543;45.892;10.838;2023-03-23T21:21:39;15.60;68.09
63407;SHT31;49543;45.892;10.838;2023-03-23T21:24:06;15.60;68.14
63407;SHT31;49543;45.892;10.838;2023-03-23T21:26:33;15.60;68.11
63407;SHT31;49543;45.892;10.838;2023-03-23T21:28:58;15.60;68.21
63407;SHT31;49543;45.892;10.838;2023-03-23T21:31:28;15.64;68.34
63407;SHT31;49543;45.892;10.838;2023-03-23T21:33:55;15.63;68.22
63407;SHT31;49543;45.892;10.838;2023-03-23T21:36:22;15.64;68.74
63407;SHT31;49543;45.892;10.838;2023-03-23T21:38:48;15.63;68.64
63407;SHT31;49543;45.892;10.838;2023-03-23T21:41:14;15.55;68.45
63407;SHT31;49543;45.892;10.838;2023-03-23T21:43:39;15.55;68.49
63407;SHT31;49543;45.892;10.838;2023-03-23T21:46:05;15.58;68.21
63407;SHT31;49543;45.892;10.838;2023-03-23T21:48:33;15.51;68.42
63407;SHT31;49543;45.892;10.838;2023-03-23T21:51:05;15.53;68.95
63407;SHT31;49543;45.892;10.838;2023-03-23T21:53:31;15.51;69.09
63407;SHT31;49543;45.892;10.838;2023-03-23T21:56:00;15.53;69.00
63407;SHT31;49543;45.892;10.838;2023-03-23T21:58:26;15.54;68.98
63407;SHT31;49543;45.892;10.838;2023-03-23T22:00:52;15.54;69.37
63407;SHT31;49543;45.892;10.838;2023-03-23T22:03:18;15.54;69.50
63407;SHT31;49543;45.892;10.838;2023-03-23T22:05:46;15.54;68.92
63407;SHT31;49543;45.892;10.838;2023-03-23T22:08:12;15.51;69.02
63407;SHT31;49543;45.892;10.838;2023-03-23T22:10:41;15.50;69.35
63407;SHT31;49543;45.892;10.838;2023-03-23T22:13:06;15.51;69.41
63407;SHT31;49543;45.892;10.838;2023-03-23T22:15:32;15.43;68.82
63407;SHT31;49543;45.892;10.838;2023-03-23T22:17:57;15.37;69.01
63407;SHT31;49543;45.892;10.838;2023-03-23T22:20:23;15.34;68.94
63407;SHT31;49543;45.892;10.838;2023-03-23T22:22:49;15.39;68.58
63407;SHT31;49543;45.892;10.838;2023-03-23T22:25:16;15.43;68.42
63407;SHT31;49543;45.892;10.838;2023-03-23T22:27:41;15.46;68.29
63407;SHT31;49543;45.892;10.838;2023-03-23T22:30:07;15.46;69.18
63407;SHT31;49543;45.892;10.838;2023-03-23T22:32:32;15.43;69.28
63407;SHT31;49543;45.892;10.838;2023-03-23T22:34:57;15.43;69.29
63407;SHT31;49543;45.892;10.838;2023-03-23T22:37:23;15.42;69.52
63407;SHT31;49543;45.892;10.838;2023-03-23T22:39:48;15.36;69.63
63407;SHT31;49543;45.892;10.838;2023-03-23T22:42:14;15.37;69.26
63407;SHT31;49543;45.892;10.838;2023-03-23T22:44:39;15.36;69.13
63407;SHT31;49543;45.892;10.838;2023-03-23T22:47:05;15.34;69.34
63407;SHT31;49543;45.892;10.838;2023-03-23T22:49:30;15.33;69.50
63407;SHT31;49543;45.892;10.838;2023-03-23T22:51:57;15.33;69.45
63407;SHT31;49543;45.892;10.838;2023-03-23T22:54:22;15.33;69.59
63407;SHT31;49543;45.892;10.838;2023-03-23T22:56:47;15.32;69.69
63407;SHT31;49543;45.892;10.838;2023-03-23T22:59:13;15.29;69.80
63407;SHT31;49543;45.892;10.838;2023-03-23T23:01:38;15.29;69.89
63407;SHT31;49543;45.892;10.838;2023-03-23T23:04:04;15.22;69.82
63407;SHT31;49543;45.892;10.838;2023-03-23T23:06:32;15.13;70.00
63407;SHT31;49543;45.892;10.838;2023-03-23T23:08:58;15.13;70.26
63407;SHT31;49543;45.892;10.838;2023-03-23T23:11:24;15.15;70.32
63407;SHT31;49543;45.892;10.838;2023-03-23T23:13:49;15.09;70.24
63407;SHT31;49543;45.892;10.838;2023-03-23T23:16:15;15.08;70.14
63407;SHT31;49543;45.892;10.838;2023-03-23T23:18:41;15.02;70.08
63407;SHT31;49543;45.892;10.838;2023-03-23T23:21:11;15.02;70.40
63407;SHT31;49543;45.892;10.838;2023-03-23T23:23:37;15.02;70.55
63407;SHT31;49543;45.892;10.838;2023-03-23T23:26:02;15.02;70.56
63407;SHT31;49543;45.892;10.838;2023-03-23T23:28:27;15.00;70.55
63407;SHT31;49543;45.892;10.838;2023-03-23T23:30:53;14.96;70.41
63407;SHT31;49543;45.892;10.838;2023-03-23T23:33:19;14.93;70.59
